Time;durP1;ratioP1;P1;durP2;ratioP2;P2;SDS_P1;SDS_P2;PMS_P1;PMS_P2;Temp;Humidity;BMP_temperature;BMP_pressure;BME280_temperature;BME280_humidity;BME280_pressure;Samples;Min_cycle;Max_cycle;Signal;HPM_P1;HPM_P2
2021/12/18 00:01:42;;;;;;;11.10;2.35;;;;;;;;;;5067388;28;20080;-75
2021/12/18 00:04:08;;;;;;;11.82;2.50;;;;;;;;;;5066204;28;20145;-75
2021/12/18 00:06:34;;;;;;;9.98;2.28;;;;;;;;;;5096116;28;20064;-74
2021/12/18 00:09:01;;;;;;;9.30;2.30;;;;;;;;;;5094847;28;20136;-73
2021/12/18 00:11:27;;;;;;;8.98;2.50;;;;;;;;;;5093684;28;20056;-74
2021/12/18 00:13:54;;;;;;;7.90;2.08;;;;;;;;;;5094934;27;20041;-74
2021/12/18 00:16:20;;;;;;;9.63;2.50;;;;;;;;;;5055954;28;20045;-77
2021/12/18 00:18:49;;;;;;;6.22;2.65;;;;;;;;;;5090243;28;20132;-76
2021/12/18 00:21:17;;;;;;;8.63;2.17;;;;;;;;;;5103345;28;20419;-78
2021/12/18 00:23:44;;;;;;;3.88;2.55;;;;;;;;;;5099707;28;20396;-77
2021/12/18 00:26:10;;;;;;;5.63;2.50;;;;;;;;;;5099863;28;20443;-77
2021/12/18 00:28:36;;;;;;;6.32;2.80;;;;;;;;;;5066761;28;20052;-73
2021/12/18 00:31:02;;;;;;;6.97;2.88;;;;;;;;;;5067314;28;20120;-73
2021/12/18 00:33:28;;;;;;;8.00;3.03;;;;;;;;;;5069498;28;20055;-72
2021/12/18 00:35:54;;;;;;;11.20;3.30;;;;;;;;;;5069302;28;20127;-74
2021/12/18 00:38:28;;;;;;;7.50;2.92;;;;;;;;;;5066708;28;20048;-73
2021/12/18 00:43:39;;;;;;;7.78;2.05;;;;;;;;;;5067867;28;20080;-73
2021/12/18 00:46:05;;;;;;;7.30;1.80;;;;;;;;;;5068038;28;20077;-74
2021/12/18 00:48:31;;;;;;;4.18;1.50;;;;;;;;;;5101648;28;20067;-75
2021/12/18 00:50:57;;;;;;;9.80;1.50;;;;;;;;;;5070732;28;20044;-75
2021/12/18 00:53:24;;;;;;;7.78;1.40;;;;;;;;;;5069667;28;20480;-75
2021/12/18 00:55:52;;;;;;;14.43;1.88;;;;;;;;;;5098683;28;20075;-75
2021/12/18 00:58:18;;;;;;;8.00;1.75;;;;;;;;;;5100637;28;20048;-76
2021/12/18 01:00:46;;;;;;;5.32;1.55;;;;;;;;;;5057504;28;20061;-75
2021/12/18 01:03:18;;;;;;;8.52;2.00;;;;;;;;;;5057196;28;20519;-74
2021/12/18 01:05:45;;;;;;;14.07;1.73;;;;;;;;;;5103649;27;20036;-74
2021/12/18 01:08:11;;;;;;;7.28;1.75;;;;;;;;;;5067864;28;20049;-74
2021/12/18 01:10:57;;;;;;;9.23;2.17;;;;;;;;;;5066967;28;20056;-74
2021/12/18 01:13:29;;;;;;;6.32;1.55;;;;;;;;;;5097521;28;20041;-75
2021/12/18 01:16:03;;;;;;;7.63;1.70;;;;;;;;;;5102868;28;20527;-75
2021/12/18 01:24:03;;;;;;;5.53;1.63;;;;;;;;;;5058396;28;20377;-75
2021/12/18 01:26:29;;;;;;;9.27;1.70;;;;;;;;;;5098647;28;20581;-74
2021/12/18 01:28:55;;;;;;;6.50;1.80;;;;;;;;;;5066154;28;20591;-74
2021/12/18 01:31:21;;;;;;;9.00;1.77;;;;;;;;;;5098968;28;20079;-74
2021/12/18 01:33:47;;;;;;;5.25;1.60;;;;;;;;;;5066919;28;20103;-74
2021/12/18 01:36:13;;;;;;;6.35;1.63;;;;;;;;;;5094710;28;20073;-75
2021/12/18 01:38:39;;;;;;;8.38;1.67;;;;;;;;;;5098827;28;20132;-74
2021/12/18 01:41:05;;;;;;;7.63;1.95;;;;;;;;;;5096937;28;20123;-74
2021/12/18 01:46:35;;;;;;;8.35;3.20;;;;;;;;;;5068786;28;20060;-74
2021/12/18 01:54:24;;;;;;;11.13;3.78;;;;;;;;;;5063818;28;20056;-74
2021/12/18 01:56:50;;;;;;;25.08;4.03;;;;;;;;;;5065554;28;20512;-75
2021/12/18 01:59:16;;;;;;;31.38;4.25;;;;;;;;;;5068602;28;20187;-74
2021/12/18 02:01:42;;;;;;;19.17;3.70;;;;;;;;;;5069534;28;20052;-74
2021/12/18 02:04:08;;;;;;;15.90;3.33;;;;;;;;;;5066712;28;20512;-74
2021/12/18 02:06:34;;;;;;;10.73;3.20;;;;;;;;;;5060702;28;20045;-74
2021/12/18 02:09:00;;;;;;;8.25;2.60;;;;;;;;;;5101860;28;20063;-74
2021/12/18 02:11:31;;;;;;;17.25;2.70;;;;;;;;;;5096358;28;20423;-74
2021/12/18 02:14:22;;;;;;;7.82;2.20;;;;;;;;;;5091709;28;20130;-74
2021/12/18 02:22:05;;;;;;;8.70;2.45;;;;;;;;;;5091619;28;20044;-75
2021/12/18 02:24:33;;;;;;;10.68;3.47;;;;;;;;;;5063295;28;20093;-74
2021/12/18 02:26:59;;;;;;;9.57;3.40;;;;;;;;;;5070693;28;20053;-74
2021/12/18 02:29:25;;;;;;;10.15;2.47;;;;;;;;;;5062122;28;20057;-74
2021/12/18 02:31:51;;;;;;;9.57;2.80;;;;;;;;;;5094916;28;20136;-74
2021/12/18 02:34:26;;;;;;;6.88;2.65;;;;;;;;;;5067457;28;20064;-74
2021/12/18 02:36:58;;;;;;;5.22;2.45;;;;;;;;;;5094821;28;20056;-74
2021/12/18 02:39:41;;;;;;;7.10;2.70;;;;;;;;;;5065915;28;20095;-74
2021/12/18 02:42:17;;;;;;;8.55;2.20;;;;;;;;;;5057840;28;20373;-74
2021/12/18 02:44:43;;;;;;;6.20;1.85;;;;;;;;;;5065033;28;20050;-74
2021/12/18 02:47:10;;;;;;;7.03;1.70;;;;;;;;;;5093812;28;20496;-74
2021/12/18 02:49:36;;;;;;;7.25;2.00;;;;;;;;;;5098381;27;20484;-74
2021/12/18 02:52:03;;;;;;;7.57;2.20;;;;;;;;;;5099213;28;20051;-74
2021/12/18 02:54:29;;;;;;;9.00;2.70;;;;;;;;;;5067734;28;20095;-74
2021/12/18 02:56:55;;;;;;;11.23;4.70;;;;;;;;;;5065209;28;20119;-74
2021/12/18 02:59:22;;;;;;;10.32;4.85;;;;;;;;;;5066862;28;20068;-74
2021/12/18 03:01:48;;;;;;;11.80;4.55;;;;;;;;;;5061798;28;20110;-74
2021/12/18 03:04:19;;;;;;;12.45;5.65;;;;;;;;;;5066720;28;20044;-74
2021/12/18 03:06:50;;;;;;;13.98;5.78;;;;;;;;;;5062834;28;20499;-74
2021/12/18 03:25:41;;;;;;;10.90;4.30;;;;;;;;;;5064207;28;20684;-74
2021/12/18 03:28:08;;;;;;;12.27;4.63;;;;;;;;;;5062986;28;20074;-74
2021/12/18 03:30:35;;;;;;;12.15;4.43;;;;;;;;;;5098550;28;20511;-74
2021/12/18 03:33:01;;;;;;;10.20;4.80;;;;;;;;;;5097810;28;20480;-74
2021/12/18 03:35:27;;;;;;;7.95;3.50;;;;;;;;;;5095761;28;20040;-75
2021/12/18 03:37:53;;;;;;;8.85;3.42;;;;;;;;;;5097931;28;20051;-75
2021/12/18 03:40:20;;;;;;;6.65;2.83;;;;;;;;;;5067934;28;20044;-75
2021/12/18 03:42:46;;;;;;;7.28;2.95;;;;;;;;;;5062549;28;20115;-74
2021/12/18 03:45:13;;;;;;;6.65;3.00;;;;;;;;;;5100955;28;20152;-74
2021/12/18 03:47:42;;;;;;;7.93;3.17;;;;;;;;;;5063355;28;20070;-74
2021/12/18 03:50:08;;;;;;;11.27;4.50;;;;;;;;;;5065062;28;20136;-74
2021/12/18 03:52:34;;;;;;;8.23;3.70;;;;;;;;;;5094690;28;20128;-74
2021/12/18 03:55:00;;;;;;;14.07;4.32;;;;;;;;;;5068180;28;20395;-74
2021/12/18 03:57:27;;;;;;;11.52;4.43;;;;;;;;;;5065895;28;20048;-74
2021/12/18 03:59:53;;;;;;;8.15;3.75;;;;;;;;;;5067767;28;20052;-74
2021/12/18 04:02:19;;;;;;;11.48;3.85;;;;;;;;;;5089164;28;20072;-74
2021/12/18 04:04:45;;;;;;;7.60;3.60;;;;;;;;;;5094270;28;20477;-74
2021/12/18 04:07:12;;;;;;;6.57;3.40;;;;;;;;;;5065816;28;20080;-74
2021/12/18 04:09:37;;;;;;;8.23;2.42;;;;;;;;;;5094358;28;20033;-74
2021/12/18 04:12:04;;;;;;;4.70;2.97;;;;;;;;;;5061889;28;20037;-74
2021/12/18 04:14:30;;;;;;;8.45;3.55;;;;;;;;;;5057972;28;20090;-74
2021/12/18 04:16:56;;;;;;;9.45;3.30;;;;;;;;;;5067930;28;20052;-74
2021/12/18 04:19:22;;;;;;;5.25;3.30;;;;;;;;;;5066840;28;20044;-74
2021/12/18 04:21:49;;;;;;;8.13;3.70;;;;;;;;;;5064930;28;20037;-74
2021/12/18 04:24:15;;;;;;;7.55;3.53;;;;;;;;;;5065752;28;20040;-74
2021/12/18 04:26:41;;;;;;;6.75;3.13;;;;;;;;;;5066301;28;20553;-74
2021/12/18 04:29:07;;;;;;;5.45;2.47;;;;;;;;;;5065634;28;20040;-74
2021/12/18 04:31:37;;;;;;;8.27;3.67;;;;;;;;;;5098810;28;20032;-73
2021/12/18 04:34:04;;;;;;;10.55;3.47;;;;;;;;;;5095448;28;20041;-74
2021/12/18 04:36:30;;;;;;;6.72;3.60;;;;;;;;;;5066563;28;20037;-74
2021/12/18 04:38:56;;;;;;;4.15;2.92;;;;;;;;;;5096866;28;20086;-74
2021/12/18 04:41:34;;;;;;;4.72;2.92;;;;;;;;;;5094874;28;20040;-74
2021/12/18 04:44:00;;;;;;;4.90;2.50;;;;;;;;;;5064427;28;20500;-73
2021/12/18 04:46:26;;;;;;;5.03;2.35;;;;;;;;;;5090919;28;20128;-74
2021/12/18 04:48:52;;;;;;;5.70;2.50;;;;;;;;;;5093938;28;20123;-74
2021/12/18 04:51:18;;;;;;;4.20;2.30;;;;;;;;;;5098420;28;20487;-73
2021/12/18 04:53:44;;;;;;;3.97;2.22;;;;;;;;;;5096835;28;20098;-74
2021/12/18 04:56:10;;;;;;;3.92;2.20;;;;;;;;;;5095602;28;20054;-74
2021/12/18 04:58:36;;;;;;;3.75;2.50;;;;;;;;;;5066153;28;20040;-74
2021/12/18 05:01:03;;;;;;;2.05;1.90;;;;;;;;;;5067637;28;20045;-74
2021/12/18 05:03:30;;;;;;;3.25;2.20;;;;;;;;;;5100180;28;20072;-74
2021/12/18 05:05:56;;;;;;;4.22;2.85;;;;;;;;;;5071035;28;20552;-74
2021/12/18 05:08:25;;;;;;;6.03;2.78;;;;;;;;;;5068658;28;20094;-73
2021/12/18 05:10:51;;;;;;;6.03;3.30;;;;;;;;;;5070159;28;20138;-73
2021/12/18 05:13:17;;;;;;;6.13;3.28;;;;;;;;;;5062938;28;20049;-73
2021/12/18 05:15:43;;;;;;;7.43;3.63;;;;;;;;;;5093019;28;20045;-74
2021/12/18 05:18:09;;;;;;;9.20;4.22;;;;;;;;;;5067911;28;20046;-73
2021/12/18 05:20:35;;;;;;;7.45;4.20;;;;;;;;;;5061669;28;20153;-74
2021/12/18 05:23:01;;;;;;;5.55;3.17;;;;;;;;;;5095851;28;20621;-74
2021/12/18 05:25:27;;;;;;;4.95;2.80;;;;;;;;;;5069612;28;20169;-73
2021/12/18 05:27:53;;;;;;;4.47;3.00;;;;;;;;;;5065779;28;20067;-73
2021/12/18 05:30:19;;;;;;;5.65;2.67;;;;;;;;;;5070297;28;20040;-74
2021/12/18 05:32:45;;;;;;;7.78;3.17;;;;;;;;;;5068255;28;20048;-74
2021/12/18 05:35:15;;;;;;;8.57;3.72;;;;;;;;;;5061301;28;20048;-74
2021/12/18 05:37:48;;;;;;;14.63;3.70;;;;;;;;;;5068493;28;20488;-74
2021/12/18 05:40:21;;;;;;;5.40;2.72;;;;;;;;;;5064245;28;20385;-74
2021/12/18 05:42:48;;;;;;;10.90;2.70;;;;;;;;;;5067093;28;20555;-74
2021/12/18 05:45:14;;;;;;;6.75;2.83;;;;;;;;;;5063402;28;20040;-74
2021/12/18 05:47:42;;;;;;;7.75;2.50;;;;;;;;;;5071051;28;20064;-73
2021/12/18 05:50:09;;;;;;;8.60;2.00;;;;;;;;;;5077345;28;20049;-74
2021/12/18 05:52:35;;;;;;;6.40;2.45;;;;;;;;;;5070670;28;20451;-73
2021/12/18 05:55:01;;;;;;;7.25;2.17;;;;;;;;;;5066057;28;20032;-73
2021/12/18 05:57:27;;;;;;;6.35;2.50;;;;;;;;;;5101285;28;20123;-73
2021/12/18 05:59:53;;;;;;;7.80;2.35;;;;;;;;;;5068383;28;20044;-74
2021/12/18 06:02:19;;;;;;;11.25;2.95;;;;;;;;;;5096221;28;20048;-73
2021/12/18 06:04:45;;;;;;;16.85;3.25;;;;;;;;;;5066366;28;20446;-73
2021/12/18 06:07:29;;;;;;;14.98;2.90;;;;;;;;;;5069682;28;20071;-74
2021/12/18 06:09:55;;;;;;;11.75;3.10;;;;;;;;;;5062763;28;20122;-73
2021/12/18 06:12:21;;;;;;;8.48;2.60;;;;;;;;;;5093452;28;20510;-73
2021/12/18 06:14:47;;;;;;;8.93;3.00;;;;;;;;;;5066945;28;20125;-73
2021/12/18 06:17:13;;;;;;;8.55;3.22;;;;;;;;;;5068445;28;20048;-73
2021/12/18 06:19:40;;;;;;;9.25;3.25;;;;;;;;;;5097420;28;20053;-73
2021/12/18 06:22:06;;;;;;;10.13;4.00;;;;;;;;;;5069177;28;20045;-74
2021/12/18 06:24:32;;;;;;;9.38;3.92;;;;;;;;;;5099500;28;20044;-74
2021/12/18 06:26:58;;;;;;;8.55;3.45;;;;;;;;;;5094038;28;20075;-73
2021/12/18 06:29:27;;;;;;;11.88;4.18;;;;;;;;;;5096161;28;20480;-73
2021/12/18 06:31:53;;;;;;;6.75;3.53;;;;;;;;;;5091786;28;20055;-74
2021/12/18 06:34:19;;;;;;;12.70;4.40;;;;;;;;;;5066071;28;20040;-73
2021/12/18 06:36:45;;;;;;;12.45;4.13;;;;;;;;;;5069069;28;20045;-74
2021/12/18 06:39:11;;;;;;;9.00;3.67;;;;;;;;;;5063280;28;20056;-74
2021/12/18 06:41:37;;;;;;;6.68;3.13;;;;;;;;;;5063530;28;20071;-74
2021/12/18 06:44:03;;;;;;;7.07;3.28;;;;;;;;;;5069099;28;20066;-73
2021/12/18 06:46:29;;;;;;;7.40;4.00;;;;;;;;;;5107899;28;20111;-73
2021/12/18 06:48:55;;;;;;;7.88;3.65;;;;;;;;;;5083295;28;20051;-73
2021/12/18 06:51:21;;;;;;;7.82;3.67;;;;;;;;;;5065793;28;20060;-73
2021/12/18 06:53:48;;;;;;;7.70;3.70;;;;;;;;;;5065249;28;20036;-73
2021/12/18 06:56:14;;;;;;;7.95;3.90;;;;;;;;;;5065714;28;20425;-74
2021/12/18 06:58:43;;;;;;;8.50;3.72;;;;;;;;;;5101809;28;20051;-73
2021/12/18 07:01:09;;;;;;;6.40;3.10;;;;;;;;;;5066323;28;20037;-74
2021/12/18 07:03:35;;;;;;;4.82;2.92;;;;;;;;;;5097008;28;20049;-73
2021/12/18 07:06:01;;;;;;;6.47;2.97;;;;;;;;;;5064695;28;20099;-73
2021/12/18 07:08:27;;;;;;;12.73;3.22;;;;;;;;;;5068316;28;20045;-73
2021/12/18 07:10:53;;;;;;;7.28;2.90;;;;;;;;;;5067188;28;20044;-73
2021/12/18 07:13:19;;;;;;;7.25;3.33;;;;;;;;;;5063402;28;20159;-74
2021/12/18 07:15:45;;;;;;;6.00;3.55;;;;;;;;;;5064862;28;20059;-74
2021/12/18 07:18:11;;;;;;;7.63;3.78;;;;;;;;;;5061884;28;20447;-73
2021/12/18 07:20:37;;;;;;;10.52;4.57;;;;;;;;;;5094228;27;20045;-74
2021/12/18 07:23:03;;;;;;;10.88;4.70;;;;;;;;;;5097085;28;20700;-74
2021/12/18 07:25:29;;;;;;;11.65;4.63;;;;;;;;;;5064558;28;20036;-74
2021/12/18 07:27:56;;;;;;;8.40;4.32;;;;;;;;;;5068597;28;20048;-73
2021/12/18 07:30:22;;;;;;;10.75;4.80;;;;;;;;;;5064405;28;20070;-73
2021/12/18 07:32:48;;;;;;;14.18;5.20;;;;;;;;;;5066472;28;20128;-74
2021/12/18 07:35:15;;;;;;;12.05;5.10;;;;;;;;;;5065642;28;20063;-74
2021/12/18 07:37:41;;;;;;;11.68;5.22;;;;;;;;;;5096445;28;20044;-74
2021/12/18 07:40:08;;;;;;;10.07;4.68;;;;;;;;;;5066193;28;20055;-73
2021/12/18 07:42:34;;;;;;;14.88;5.72;;;;;;;;;;5092776;28;20052;-74
2021/12/18 07:45:00;;;;;;;11.77;5.10;;;;;;;;;;5068256;28;20044;-73
2021/12/18 07:47:26;;;;;;;11.63;4.70;;;;;;;;;;5066506;28;20048;-73
2021/12/18 07:49:52;;;;;;;10.05;4.78;;;;;;;;;;5097014;28;20044;-73
2021/12/18 07:52:18;;;;;;;8.68;4.22;;;;;;;;;;5094025;28;20056;-74
2021/12/18 07:54:44;;;;;;;9.43;4.45;;;;;;;;;;5060694;28;20036;-72
2021/12/18 07:57:10;;;;;;;11.05;4.50;;;;;;;;;;5092157;28;20115;-74
2021/12/18 07:59:36;;;;;;;14.65;5.03;;;;;;;;;;5063167;28;20060;-74
2021/12/18 08:02:04;;;;;;;10.65;5.45;;;;;;;;;;5096557;28;20056;-73
2021/12/18 08:04:31;;;;;;;11.60;4.60;;;;;;;;;;5062272;28;20045;-73
2021/12/18 08:06:57;;;;;;;10.93;5.13;;;;;;;;;;5066844;28;20120;-73
2021/12/18 08:09:23;;;;;;;10.45;5.22;;;;;;;;;;5065799;28;20846;-73
2021/12/18 08:11:52;;;;;;;11.15;5.18;;;;;;;;;;5063031;28;20049;-74
2021/12/18 08:14:18;;;;;;;12.60;5.70;;;;;;;;;;5064294;28;20098;-74
2021/12/18 08:16:50;;;;;;;16.23;6.05;;;;;;;;;;5068693;28;20037;-74
2021/12/18 08:19:16;;;;;;;11.32;5.65;;;;;;;;;;5058323;28;20057;-74
2021/12/18 08:21:42;;;;;;;10.60;5.78;;;;;;;;;;5094189;28;20071;-74
2021/12/18 08:24:08;;;;;;;11.57;6.75;;;;;;;;;;5066818;28;20557;-73
2021/12/18 08:26:37;;;;;;;9.70;6.13;;;;;;;;;;5062560;28;20492;-74
2021/12/18 08:29:03;;;;;;;13.23;6.55;;;;;;;;;;5098014;28;20044;-74
2021/12/18 08:31:29;;;;;;;11.73;6.00;;;;;;;;;;5091968;28;20098;-74
2021/12/18 08:33:55;;;;;;;11.95;5.93;;;;;;;;;;5068339;28;20052;-74
2021/12/18 08:36:21;;;;;;;11.23;6.35;;;;;;;;;;5068521;28;20590;-73
2021/12/18 08:38:47;;;;;;;11.65;5.68;;;;;;;;;;5102918;27;20057;-73
2021/12/18 08:41:16;;;;;;;9.05;5.07;;;;;;;;;;5098910;28;20036;-73
2021/12/18 08:43:42;;;;;;;11.27;5.20;;;;;;;;;;5064556;28;20063;-73
2021/12/18 08:46:08;;;;;;;15.10;6.13;;;;;;;;;;5105669;27;20454;-74
2021/12/18 08:48:34;;;;;;;14.70;7.00;;;;;;;;;;5105144;27;20045;-73
2021/12/18 08:51:03;;;;;;;13.02;5.57;;;;;;;;;;5097317;28;20098;-73
2021/12/18 08:53:29;;;;;;;10.82;5.88;;;;;;;;;;5068953;28;20186;-74
2021/12/18 08:55:55;;;;;;;13.88;6.63;;;;;;;;;;5064417;28;20115;-73
2021/12/18 08:58:21;;;;;;;10.55;6.20;;;;;;;;;;5068301;28;20503;-74
2021/12/18 09:00:57;;;;;;;10.15;6.78;;;;;;;;;;5068790;28;20098;-74
2021/12/18 09:03:29;;;;;;;5.90;4.28;;;;;;;;;;5062150;28;20048;-74
2021/12/18 09:05:55;;;;;;;6.93;3.60;;;;;;;;;;5094455;28;20135;-73
2021/12/18 09:08:21;;;;;;;5.18;3.63;;;;;;;;;;5067518;28;20134;-74
2021/12/18 09:10:47;;;;;;;7.40;5.13;;;;;;;;;;5070372;28;20045;-74
2021/12/18 09:13:14;;;;;;;9.48;4.97;;;;;;;;;;5068001;28;20098;-73
2021/12/18 09:15:40;;;;;;;9.15;5.45;;;;;;;;;;5069028;28;20043;-73
2021/12/18 09:18:06;;;;;;;11.40;5.43;;;;;;;;;;5070243;28;20069;-74
2021/12/18 09:20:35;;;;;;;15.38;7.40;;;;;;;;;;5066695;28;20086;-73
2021/12/18 09:23:02;;;;;;;15.70;6.35;;;;;;;;;;5100023;28;20059;-73
2021/12/18 09:25:28;;;;;;;14.07;6.35;;;;;;;;;;5063512;28;20056;-73
2021/12/18 09:27:56;;;;;;;19.30;6.18;;;;;;;;;;5068142;28;20044;-74
2021/12/18 09:30:28;;;;;;;17.33;6.50;;;;;;;;;;5068598;28;20068;-73
2021/12/18 09:32:54;;;;;;;16.02;6.22;;;;;;;;;;5069415;28;20044;-73
2021/12/18 09:35:21;;;;;;;16.20;6.00;;;;;;;;;;5069154;28;20049;-72
2021/12/18 09:37:47;;;;;;;15.30;6.28;;;;;;;;;;5065707;28;20041;-74
2021/12/18 09:40:14;;;;;;;11.02;5.10;;;;;;;;;;5065393;28;20045;-74
2021/12/18 09:42:40;;;;;;;10.98;6.30;;;;;;;;;;5093651;28;20051;-75
2021/12/18 09:45:07;;;;;;;12.10;6.10;;;;;;;;;;5065441;28;20040;-75
2021/12/18 09:47:33;;;;;;;13.02;6.03;;;;;;;;;;5065352;28;20036;-75
2021/12/18 09:50:00;;;;;;;13.88;4.72;;;;;;;;;;5068458;28;20043;-74
2021/12/18 09:52:26;;;;;;;13.73;5.43;;;;;;;;;;5068372;28;20044;-74
2021/12/18 09:54:56;;;;;;;12.57;6.03;;;;;;;;;;5065639;28;20100;-74
2021/12/18 09:57:22;;;;;;;11.98;5.05;;;;;;;;;;5068406;28;20047;-74
2021/12/18 09:59:48;;;;;;;9.07;4.50;;;;;;;;;;5069363;28;20056;-74
2021/12/18 10:02:14;;;;;;;7.72;4.72;;;;;;;;;;5067626;28;20073;-74
2021/12/18 10:04:40;;;;;;;18.70;9.32;;;;;;;;;;5100151;28;20075;-75
2021/12/18 10:07:23;;;;;;;12.32;5.00;;;;;;;;;;5067450;28;20083;-75
2021/12/18 10:09:50;;;;;;;9.85;4.53;;;;;;;;;;5063443;28;20156;-75
2021/12/18 10:12:16;;;;;;;7.90;4.10;;;;;;;;;;5065890;28;20048;-76
2021/12/18 10:14:47;;;;;;;9.20;4.30;;;;;;;;;;5100597;28;20097;-75
2021/12/18 10:17:22;;;;;;;9.85;3.90;;;;;;;;;;5065797;28;20052;-76
2021/12/18 10:19:49;;;;;;;9.00;3.90;;;;;;;;;;5062115;28;20059;-75
2021/12/18 10:22:15;;;;;;;9.23;4.07;;;;;;;;;;5073234;28;20055;-76
2021/12/18 10:24:42;;;;;;;12.18;4.40;;;;;;;;;;5059136;28;20052;-75
2021/12/18 10:27:22;;;;;;;9.23;4.82;;;;;;;;;;5060191;28;20511;-75
2021/12/18 10:29:50;;;;;;;9.13;5.68;;;;;;;;;;5062233;28;20083;-76
2021/12/18 10:32:21;;;;;;;10.90;5.00;;;;;;;;;;5088243;28;20040;-76
2021/12/18 10:34:51;;;;;;;8.88;4.38;;;;;;;;;;5093987;28;20048;-75
2021/12/18 10:37:18;;;;;;;9.88;5.53;;;;;;;;;;5060968;28;20090;-76
2021/12/18 10:39:56;;;;;;;9.52;4.78;;;;;;;;;;5088009;28;20037;-76
2021/12/18 10:42:25;;;;;;;9.57;4.10;;;;;;;;;;5064045;28;20087;-76
2021/12/18 10:45:11;;;;;;;6.68;4.38;;;;;;;;;;5067665;28;20823;-75
2021/12/18 10:47:44;;;;;;;10.38;4.72;;;;;;;;;;5094108;28;20041;-76
2021/12/18 10:50:17;;;;;;;11.63;4.63;;;;;;;;;;5089285;28;20053;-76
2021/12/18 10:52:43;;;;;;;9.25;4.22;;;;;;;;;;5063204;28;20056;-76
2021/12/18 10:55:09;;;;;;;9.90;4.70;;;;;;;;;;5061341;28;20037;-75
2021/12/18 10:57:35;;;;;;;7.80;4.00;;;;;;;;;;5082789;28;20386;-75
2021/12/18 11:00:01;;;;;;;6.47;3.75;;;;;;;;;;5087071;28;20061;-75
2021/12/18 11:02:28;;;;;;;9.50;4.07;;;;;;;;;;5067536;28;20067;-76
2021/12/18 11:05:12;;;;;;;10.90;4.47;;;;;;;;;;5058470;28;20101;-77
2021/12/18 11:07:42;;;;;;;6.45;4.13;;;;;;;;;;5054259;28;20063;-76
2021/12/18 11:10:54;;;;;;;7.65;4.60;;;;;;;;;;5062698;28;20062;-76
2021/12/18 11:13:40;;;;;;;9.73;4.88;;;;;;;;;;5059697;28;20040;-76
2021/12/18 11:16:06;;;;;;;9.02;4.72;;;;;;;;;;5064238;28;20352;-77
2021/12/18 11:18:33;;;;;;;8.45;4.45;;;;;;;;;;5066644;28;20047;-77
2021/12/18 11:20:59;;;;;;;14.13;5.03;;;;;;;;;;5066324;28;20084;-77
2021/12/18 11:23:28;;;;;;;10.50;5.75;;;;;;;;;;5090813;28;20045;-77
2021/12/18 11:25:54;;;;;;;8.90;5.43;;;;;;;;;;5087050;28;20044;-77
2021/12/18 11:28:22;;;;;;;18.10;5.60;;;;;;;;;;5088199;28;20097;-77
2021/12/18 11:30:50;;;;;;;11.85;5.20;;;;;;;;;;5049278;28;20055;-75
2021/12/18 11:33:16;;;;;;;8.90;4.40;;;;;;;;;;5051227;28;20037;-73
2021/12/18 11:35:42;;;;;;;11.80;5.25;;;;;;;;;;5091542;28;20040;-75
2021/12/18 11:38:09;;;;;;;9.77;5.53;;;;;;;;;;5097880;28;20182;-74
2021/12/18 11:40:37;;;;;;;13.40;6.40;;;;;;;;;;5066104;28;20866;-76
2021/12/18 11:43:06;;;;;;;13.60;6.25;;;;;;;;;;5064320;28;20048;-75
2021/12/18 11:45:34;;;;;;;9.23;4.70;;;;;;;;;;5067710;28;20100;-76
2021/12/18 11:48:00;;;;;;;13.50;4.65;;;;;;;;;;5066601;28;20041;-75
2021/12/18 11:50:28;;;;;;;11.18;5.15;;;;;;;;;;5064134;28;20127;-75
2021/12/18 11:53:12;;;;;;;8.43;4.53;;;;;;;;;;5087039;28;20064;-75
2021/12/18 11:55:49;;;;;;;12.38;4.80;;;;;;;;;;5058388;28;20135;-76
2021/12/18 11:58:29;;;;;;;14.05;5.10;;;;;;;;;;5088810;28;20044;-75
2021/12/18 12:00:59;;;;;;;13.32;5.28;;;;;;;;;;5085535;28;20488;-76
2021/12/18 12:03:32;;;;;;;12.90;5.43;;;;;;;;;;5057290;28;20547;-75
2021/12/18 12:06:00;;;;;;;13.05;5.53;;;;;;;;;;5058817;28;20495;-75
2021/12/18 12:08:29;;;;;;;16.20;5.80;;;;;;;;;;5085962;28;20048;-75
2021/12/18 12:11:17;;;;;;;8.55;4.45;;;;;;;;;;5061547;28;20582;-75
2021/12/18 12:13:59;;;;;;;12.02;4.03;;;;;;;;;;5091095;28;20502;-75
2021/12/18 12:16:46;;;;;;;9.90;4.30;;;;;;;;;;5056504;28;20056;-75
2021/12/18 12:19:44;;;;;;;6.60;4.00;;;;;;;;;;5062176;28;20494;-75
2021/12/18 12:22:52;;;;;;;13.40;4.65;;;;;;;;;;5037727;28;20095;-75
2021/12/18 12:25:31;;;;;;;9.45;4.47;;;;;;;;;;5026244;28;20061;-75
2021/12/18 12:28:03;;;;;;;8.55;4.50;;;;;;;;;;5056681;28;20668;-75
2021/12/18 12:30:37;;;;;;;6.68;4.10;;;;;;;;;;5092154;28;20049;-75
2021/12/18 12:33:05;;;;;;;8.00;4.22;;;;;;;;;;5094629;27;20052;-75
2021/12/18 12:35:51;;;;;;;6.63;4.43;;;;;;;;;;5063510;28;20040;-76
2021/12/18 12:38:25;;;;;;;9.02;4.03;;;;;;;;;;5092219;28;20123;-75
2021/12/18 12:40:51;;;;;;;10.68;4.80;;;;;;;;;;5056681;28;20047;-75
2021/12/18 12:43:21;;;;;;;10.18;4.65;;;;;;;;;;5095275;28;20503;-75
2021/12/18 12:45:50;;;;;;;8.27;4.55;;;;;;;;;;5091438;28;20475;-76
2021/12/18 12:48:17;;;;;;;10.77;4.82;;;;;;;;;;5068454;28;20072;-76
2021/12/18 12:50:44;;;;;;;7.75;4.35;;;;;;;;;;5064972;28;20053;-73
2021/12/18 12:53:10;;;;;;;7.63;4.68;;;;;;;;;;5068352;28;20041;-73
2021/12/18 12:55:43;;;;;;;7.82;4.53;;;;;;;;;;5068512;28;20052;-74
2021/12/18 12:58:18;;;;;;;9.57;5.07;;;;;;;;;;5066526;28;20041;-75
2021/12/18 13:00:46;;;;;;;7.35;4.38;;;;;;;;;;5069787;28;20652;-74
2021/12/18 13:03:13;;;;;;;7.88;4.72;;;;;;;;;;5067244;28;20096;-73
2021/12/18 13:05:45;;;;;;;6.22;4.57;;;;;;;;;;5064807;28;20051;-73
2021/12/18 13:08:11;;;;;;;8.48;5.57;;;;;;;;;;5058035;28;20076;-74
2021/12/18 13:10:40;;;;;;;10.45;4.95;;;;;;;;;;5088947;28;20070;-74
2021/12/18 13:13:07;;;;;;;7.18;4.47;;;;;;;;;;5064213;28;20128;-75
2021/12/18 13:15:46;;;;;;;5.07;4.03;;;;;;;;;;5058530;28;20480;-76
2021/12/18 13:18:12;;;;;;;7.70;3.30;;;;;;;;;;5057356;28;20720;-76
2021/12/18 13:20:42;;;;;;;6.25;3.80;;;;;;;;;;5088937;28;20662;-76
2021/12/18 13:23:09;;;;;;;4.13;3.50;;;;;;;;;;5095460;28;20201;-75
2021/12/18 13:25:45;;;;;;;6.22;3.90;;;;;;;;;;5100939;28;20037;-76
2021/12/18 13:28:11;;;;;;;5.97;4.30;;;;;;;;;;5092695;28;20072;-73
2021/12/18 13:30:40;;;;;;;7.30;4.10;;;;;;;;;;5068908;28;20079;-74
2021/12/18 13:33:07;;;;;;;8.70;4.35;;;;;;;;;;5054126;28;20056;-73
2021/12/18 13:35:34;;;;;;;11.00;5.40;;;;;;;;;;5094620;28;20048;-76
2021/12/18 13:38:00;;;;;;;11.43;5.15;;;;;;;;;;5062424;28;20052;-76
2021/12/18 13:40:31;;;;;;;8.25;5.65;;;;;;;;;;5059736;28;20102;-75
2021/12/18 13:43:06;;;;;;;10.68;5.93;;;;;;;;;;5095428;28;20053;-76
2021/12/18 13:45:34;;;;;;;7.18;5.50;;;;;;;;;;5091825;27;20534;-76
2021/12/18 13:48:03;;;;;;;10.77;4.82;;;;;;;;;;5100079;28;20051;-75
2021/12/18 13:50:30;;;;;;;10.55;5.47;;;;;;;;;;5071430;28;20076;-75
2021/12/18 13:53:05;;;;;;;10.07;5.60;;;;;;;;;;5065083;28;20041;-75
2021/12/18 13:55:34;;;;;;;9.52;5.82;;;;;;;;;;5068709;28;20131;-75
2021/12/18 13:58:03;;;;;;;8.82;5.40;;;;;;;;;;5101107;28;20086;-75
2021/12/18 14:00:44;;;;;;;9.63;5.93;;;;;;;;;;5063467;28;20134;-75
2021/12/18 14:03:17;;;;;;;8.25;5.78;;;;;;;;;;5061112;28;20083;-74
2021/12/18 14:05:43;;;;;;;9.23;5.95;;;;;;;;;;5056198;28;20098;-74
2021/12/18 14:08:09;;;;;;;12.15;6.32;;;;;;;;;;5089847;28;20044;-74
2021/12/18 14:10:35;;;;;;;12.35;6.78;;;;;;;;;;5057114;28;20110;-74
2021/12/18 14:13:01;;;;;;;11.50;5.97;;;;;;;;;;5057707;28;21165;-74
2021/12/18 14:15:27;;;;;;;14.77;4.43;;;;;;;;;;5089829;28;20484;-74
2021/12/18 14:17:53;;;;;;;8.75;3.75;;;;;;;;;;5054346;28;20111;-74
2021/12/18 14:20:19;;;;;;;6.10;3.70;;;;;;;;;;5090836;28;20107;-74
2021/12/18 14:22:45;;;;;;;7.25;3.50;;;;;;;;;;5086903;28;20567;-74
2021/12/18 14:25:12;;;;;;;7.40;3.58;;;;;;;;;;5059460;28;20077;-74
2021/12/18 14:27:45;;;;;;;6.80;3.28;;;;;;;;;;5054809;28;20053;-74
2021/12/18 14:30:21;;;;;;;5.18;3.00;;;;;;;;;;5057485;28;20069;-75
2021/12/18 14:32:47;;;;;;;4.13;2.80;;;;;;;;;;5060345;28;20048;-74
2021/12/18 14:35:14;;;;;;;3.95;2.90;;;;;;;;;;5063766;28;20122;-74
2021/12/18 14:37:48;;;;;;;6.90;3.00;;;;;;;;;;5059610;28;20048;-74
2021/12/18 14:40:15;;;;;;;;;;;;;;;;;;5089749;28;20102;-74
2021/12/18 14:42:48;;;;;;;5.55;1.90;;;;;;;;;;5052985;28;19927;-74
2021/12/18 14:45:21;;;;;;;7.30;2.33;;;;;;;;;;5055357;28;20144;-74
2021/12/18 14:47:48;;;;;;;2.72;1.52;;;;;;;;;;5092551;28;20072;-74
2021/12/18 14:50:17;;;;;;;2.58;1.70;;;;;;;;;;5060261;28;20040;-74
2021/12/18 14:52:59;;;;;;;3.60;2.13;;;;;;;;;;5091477;28;20040;-74
2021/12/18 14:55:37;;;;;;;3.85;2.30;;;;;;;;;;5062982;28;20185;-74
2021/12/18 14:58:20;;;;;;;5.22;2.70;;;;;;;;;;5087051;28;20550;-74
2021/12/18 15:00:55;;;;;;;4.55;2.67;;;;;;;;;;5063510;28;20365;-75
2021/12/18 15:03:31;;;;;;;6.18;3.30;;;;;;;;;;5069948;28;20045;-74
2021/12/18 15:06:08;;;;;;;5.53;2.92;;;;;;;;;;5060102;28;20055;-74
2021/12/18 15:08:59;;;;;;;4.35;3.13;;;;;;;;;;5095929;28;20518;-74
2021/12/18 15:11:25;;;;;;;4.57;3.40;;;;;;;;;;5083140;28;20489;-71
2021/12/18 15:13:54;;;;;;;11.68;5.10;;;;;;;;;;5052963;28;20049;-73
2021/12/18 15:16:32;;;;;;;15.43;4.95;;;;;;;;;;5088727;28;20059;-73
2021/12/18 15:18:59;;;;;;;7.63;4.95;;;;;;;;;;5089135;28;20527;-72
2021/12/18 15:21:27;;;;;;;7.32;3.42;;;;;;;;;;5056670;28;20412;-73
2021/12/18 15:23:53;;;;;;;6.60;3.40;;;;;;;;;;5089594;28;20048;-73
2021/12/18 15:26:19;;;;;;;5.53;2.75;;;;;;;;;;5087965;28;20052;-75